sensor_id;sensor_type;location;lat;lon;timestamp;P1;durP1;ratioP1;P2;durP2;ratioP2
40995;SDS011;26723;57.478;12.066;2022-10-26T00:02:17;1.50;;;1.10;;
40995;SDS011;26723;57.478;12.066;2022-10-26T00:05:26;2.97;;;1.00;;
40995;SDS011;26723;57.478;12.066;2022-10-26T00:08:34;3.70;;;1.20;;
40995;SDS011;26723;57.478;12.066;2022-10-26T00:11:43;1.87;;;0.87;;
40995;SDS011;26723;57.478;12.066;2022-10-26T00:14:52;4.37;;;1.07;;
40995;SDS011;26723;57.478;12.066;2022-10-26T00:18:00;5.10;;;1.20;;
40995;SDS011;26723;57.478;12.066;2022-10-26T00:21:09;2.00;;;0.90;;
40995;SDS011;26723;57.478;12.066;2022-10-26T00:24:18;1.07;;;0.73;;
40995;SDS011;26723;57.478;12.066;2022-10-26T00:27:26;2.93;;;0.90;;
40995;SDS011;26723;57.478;12.066;2022-10-26T00:30:38;0.97;;;0.93;;
40995;SDS011;26723;57.478;12.066;2022-10-26T00:33:47;1.10;;;0.80;;
40995;SDS011;26723;57.478;12.066;2022-10-26T00:36:59;2.33;;;1.17;;
40995;SDS011;26723;57.478;12.066;2022-10-26T00:40:08;1.97;;;0.70;;
40995;SDS011;26723;57.478;12.066;2022-10-26T00:43:32;2.50;;;0.60;;
40995;SDS011;26723;57.478;12.066;2022-10-26T00:46:43;1.83;;;0.80;;
40995;SDS011;26723;57.478;12.066;2022-10-26T00:49:51;2.07;;;0.97;;
40995;SDS011;26723;57.478;12.066;2022-10-26T00:53:03;2.23;;;0.83;;
40995;SDS011;26723;57.478;12.066;2022-10-26T00:56:13;1.33;;;0.53;;
40995;SDS011;26723;57.478;12.066;2022-10-26T00:59:22;5.93;;;1.13;;
40995;SDS011;26723;57.478;12.066;2022-10-26T01:02:32;2.40;;;0.93;;
40995;SDS011;26723;57.478;12.066;2022-10-26T01:05:42;1.57;;;0.77;;
40995;SDS011;26723;57.478;12.066;2022-10-26T01:08:52;0.70;;;0.60;;
40995;SDS011;26723;57.478;12.066;2022-10-26T01:12:01;0.77;;;0.50;;
40995;SDS011;26723;57.478;12.066;2022-10-26T01:15:09;3.13;;;1.10;;
40995;SDS011;26723;57.478;12.066;2022-10-26T01:18:21;1.23;;;0.60;;
40995;SDS011;26723;57.478;12.066;2022-10-26T01:21:40;1.23;;;0.70;;
40995;SDS011;26723;57.478;12.066;2022-10-26T01:24:57;0.83;;;0.50;;
40995;SDS011;26723;57.478;12.066;2022-10-26T01:28:19;2.53;;;0.77;;
40995;SDS011;26723;57.478;12.066;2022-10-26T01:31:41;0.90;;;0.90;;
40995;SDS011;26723;57.478;12.066;2022-10-26T01:34:54;1.07;;;0.43;;
40995;SDS011;26723;57.478;12.066;2022-10-26T01:38:09;1.07;;;0.73;;
40995;SDS011;26723;57.478;12.066;2022-10-26T01:41:22;0.60;;;0.60;;
40995;SDS011;26723;57.478;12.066;2022-10-26T01:44:35;0.43;;;0.37;;
40995;SDS011;26723;57.478;12.066;2022-10-26T01:47:49;0.83;;;0.50;;
40995;SDS011;26723;57.478;12.066;2022-10-26T01:51:01;1.23;;;0.77;;
40995;SDS011;26723;57.478;12.066;2022-10-26T01:54:11;1.63;;;0.70;;
40995;SDS011;26723;57.478;12.066;2022-10-26T01:57:19;3.87;;;0.60;;
40995;SDS011;26723;57.478;12.066;2022-10-26T02:00:28;2.30;;;0.70;;
40995;SDS011;26723;57.478;12.066;2022-10-26T02:03:42;3.90;;;0.73;;
40995;SDS011;26723;57.478;12.066;2022-10-26T02:07:00;2.80;;;0.70;;
40995;SDS011;26723;57.478;12.066;2022-10-26T02:10:12;1.03;;;0.93;;
40995;SDS011;26723;57.478;12.066;2022-10-26T02:13:32;2.03;;;0.70;;
40995;SDS011;26723;57.478;12.066;2022-10-26T02:16:51;2.03;;;0.80;;
40995;SDS011;26723;57.478;12.066;2022-10-26T02:20:03;0.60;;;0.53;;
40995;SDS011;26723;57.478;12.066;2022-10-26T02:23:14;1.23;;;0.83;;
40995;SDS011;26723;57.478;12.066;2022-10-26T02:26:25;3.30;;;0.70;;
40995;SDS011;26723;57.478;12.066;2022-10-26T02:29:36;2.80;;;1.00;;
40995;SDS011;26723;57.478;12.066;2022-10-26T02:32:47;2.03;;;1.13;;
40995;SDS011;26723;57.478;12.066;2022-10-26T02:35:59;2.40;;;1.00;;
40995;SDS011;26723;57.478;12.066;2022-10-26T02:39:11;1.70;;;0.80;;
40995;SDS011;26723;57.478;12.066;2022-10-26T02:42:23;1.13;;;0.53;;
40995;SDS011;26723;57.478;12.066;2022-10-26T02:45:34;0.60;;;0.60;;
40995;SDS011;26723;57.478;12.066;2022-10-26T02:48:47;3.33;;;0.87;;
40995;SDS011;26723;57.478;12.066;2022-10-26T02:52:00;3.27;;;1.10;;
40995;SDS011;26723;57.478;12.066;2022-10-26T02:55:13;2.07;;;0.90;;
40995;SDS011;26723;57.478;12.066;2022-10-26T02:58:27;2.03;;;0.87;;
40995;SDS011;26723;57.478;12.066;2022-10-26T03:01:39;1.50;;;1.00;;
40995;SDS011;26723;57.478;12.066;2022-10-26T03:04:48;2.53;;;1.20;;
40995;SDS011;26723;57.478;12.066;2022-10-26T03:07:59;2.70;;;1.50;;
40995;SDS011;26723;57.478;12.066;2022-10-26T03:11:07;0.83;;;0.83;;
40995;SDS011;26723;57.478;12.066;2022-10-26T03:14:15;4.40;;;1.20;;
40995;SDS011;26723;57.478;12.066;2022-10-26T03:17:24;3.00;;;0.83;;
40995;SDS011;26723;57.478;12.066;2022-10-26T03:20:32;3.27;;;1.10;;
40995;SDS011;26723;57.478;12.066;2022-10-26T03:23:42;1.40;;;1.30;;
40995;SDS011;26723;57.478;12.066;2022-10-26T03:26:53;1.97;;;0.70;;
40995;SDS011;26723;57.478;12.066;2022-10-26T03:30:06;3.97;;;1.00;;
40995;SDS011;26723;57.478;12.066;2022-10-26T03:33:15;2.57;;;1.00;;
40995;SDS011;26723;57.478;12.066;2022-10-26T03:36:24;0.83;;;0.80;;
40995;SDS011;26723;57.478;12.066;2022-10-26T03:39:34;0.80;;;0.80;;
40995;SDS011;26723;57.478;12.066;2022-10-26T03:42:42;3.13;;;0.90;;
40995;SDS011;26723;57.478;12.066;2022-10-26T03:45:50;0.70;;;0.70;;
40995;SDS011;26723;57.478;12.066;2022-10-26T03:48:59;2.27;;;0.93;;
40995;SDS011;26723;57.478;12.066;2022-10-26T03:52:07;1.67;;;0.80;;
40995;SDS011;26723;57.478;12.066;2022-10-26T03:55:17;3.37;;;0.90;;
40995;SDS011;26723;57.478;12.066;2022-10-26T03:58:25;1.60;;;1.17;;
40995;SDS011;26723;57.478;12.066;2022-10-26T04:01:34;2.53;;;1.00;;
40995;SDS011;26723;57.478;12.066;2022-10-26T04:04:42;2.23;;;0.70;;
40995;SDS011;26723;57.478;12.066;2022-10-26T04:07:51;1.13;;;0.70;;
40995;SDS011;26723;57.478;12.066;2022-10-26T04:11:01;0.80;;;0.70;;
40995;SDS011;26723;57.478;12.066;2022-10-26T04:14:10;1.20;;;0.50;;
40995;SDS011;26723;57.478;12.066;2022-10-26T04:17:18;0.50;;;0.50;;
40995;SDS011;26723;57.478;12.066;2022-10-26T04:20:27;1.00;;;0.67;;
40995;SDS011;26723;57.478;12.066;2022-10-26T04:23:36;1.80;;;0.60;;
40995;SDS011;26723;57.478;12.066;2022-10-26T04:26:46;2.40;;;0.87;;
40995;SDS011;26723;57.478;12.066;2022-10-26T04:29:56;1.63;;;0.67;;
40995;SDS011;26723;57.478;12.066;2022-10-26T04:33:05;1.47;;;0.70;;
40995;SDS011;26723;57.478;12.066;2022-10-26T04:36:13;2.20;;;0.50;;
40995;SDS011;26723;57.478;12.066;2022-10-26T04:39:21;0.60;;;0.60;;
40995;SDS011;26723;57.478;12.066;2022-10-26T04:42:33;2.13;;;0.93;;
40995;SDS011;26723;57.478;12.066;2022-10-26T04:45:47;1.57;;;0.77;;
40995;SDS011;26723;57.478;12.066;2022-10-26T04:48:55;2.07;;;1.00;;
40995;SDS011;26723;57.478;12.066;2022-10-26T04:52:04;3.40;;;0.93;;
40995;SDS011;26723;57.478;12.066;2022-10-26T04:55:13;4.10;;;0.83;;
40995;SDS011;26723;57.478;12.066;2022-10-26T04:58:22;0.83;;;0.83;;
40995;SDS011;26723;57.478;12.066;2022-10-26T05:01:33;1.00;;;0.57;;
40995;SDS011;26723;57.478;12.066;2022-10-26T05:04:41;2.43;;;0.77;;
40995;SDS011;26723;57.478;12.066;2022-10-26T05:07:52;3.60;;;0.70;;
40995;SDS011;26723;57.478;12.066;2022-10-26T05:11:01;1.40;;;0.87;;
40995;SDS011;26723;57.478;12.066;2022-10-26T05:14:10;2.40;;;0.90;;
40995;SDS011;26723;57.478;12.066;2022-10-26T05:17:19;2.27;;;0.70;;
40995;SDS011;26723;57.478;12.066;2022-10-26T05:20:29;1.97;;;0.70;;
40995;SDS011;26723;57.478;12.066;2022-10-26T05:23:37;1.27;;;0.90;;
40995;SDS011;26723;57.478;12.066;2022-10-26T05:26:46;0.93;;;0.70;;
40995;SDS011;26723;57.478;12.066;2022-10-26T05:29:55;2.93;;;0.87;;
40995;SDS011;26723;57.478;12.066;2022-10-26T05:33:04;4.70;;;0.73;;
40995;SDS011;26723;57.478;12.066;2022-10-26T05:36:13;1.67;;;1.07;;
40995;SDS011;26723;57.478;12.066;2022-10-26T05:39:21;1.13;;;0.70;;
40995;SDS011;26723;57.478;12.066;2022-10-26T05:42:29;3.60;;;1.03;;
40995;SDS011;26723;57.478;12.066;2022-10-26T05:45:39;1.17;;;0.80;;
40995;SDS011;26723;57.478;12.066;2022-10-26T05:48:47;1.90;;;1.13;;
40995;SDS011;26723;57.478;12.066;2022-10-26T05:51:56;1.90;;;1.03;;
40995;SDS011;26723;57.478;12.066;2022-10-26T05:55:04;2.23;;;1.03;;
40995;SDS011;26723;57.478;12.066;2022-10-26T05:58:13;2.40;;;0.97;;
40995;SDS011;26723;57.478;12.066;2022-10-26T06:01:26;1.97;;;0.70;;
40995;SDS011;26723;57.478;12.066;2022-10-26T06:04:41;2.73;;;1.00;;
40995;SDS011;26723;57.478;12.066;2022-10-26T06:07:53;1.70;;;1.00;;
40995;SDS011;26723;57.478;12.066;2022-10-26T06:11:02;1.87;;;0.63;;
40995;SDS011;26723;57.478;12.066;2022-10-26T06:14:12;2.10;;;0.80;;
40995;SDS011;26723;57.478;12.066;2022-10-26T06:17:27;1.40;;;0.80;;
40995;SDS011;26723;57.478;12.066;2022-10-26T06:20:48;1.60;;;0.60;;
40995;SDS011;26723;57.478;12.066;2022-10-26T06:24:07;2.80;;;0.63;;
40995;SDS011;26723;57.478;12.066;2022-10-26T06:27:23;1.10;;;0.50;;
40995;SDS011;26723;57.478;12.066;2022-10-26T06:30:39;1.60;;;0.33;;
40995;SDS011;26723;57.478;12.066;2022-10-26T06:33:50;2.10;;;0.80;;
40995;SDS011;26723;57.478;12.066;2022-10-26T06:37:03;0.30;;;0.30;;
40995;SDS011;26723;57.478;12.066;2022-10-26T06:40:12;1.90;;;0.60;;
40995;SDS011;26723;57.478;12.066;2022-10-26T06:43:23;1.37;;;0.70;;
40995;SDS011;26723;57.478;12.066;2022-10-26T06:46:35;0.97;;;0.60;;
40995;SDS011;26723;57.478;12.066;2022-10-26T06:49:54;1.47;;;0.50;;
40995;SDS011;26723;57.478;12.066;2022-10-26T06:53:11;0.70;;;0.60;;
40995;SDS011;26723;57.478;12.066;2022-10-26T06:56:25;1.53;;;0.77;;
40995;SDS011;26723;57.478;12.066;2022-10-26T06:59:36;0.70;;;0.70;;
40995;SDS011;26723;57.478;12.066;2022-10-26T07:02:47;0.47;;;0.47;;
40995;SDS011;26723;57.478;12.066;2022-10-26T07:05:58;1.43;;;0.77;;
40995;SDS011;26723;57.478;12.066;2022-10-26T07:09:06;1.67;;;0.60;;
40995;SDS011;26723;57.478;12.066;2022-10-26T07:12:15;1.70;;;0.60;;
40995;SDS011;26723;57.478;12.066;2022-10-26T07:15:23;0.43;;;0.40;;
40995;SDS011;26723;57.478;12.066;2022-10-26T07:18:31;0.53;;;0.53;;
40995;SDS011;26723;57.478;12.066;2022-10-26T07:21:41;1.03;;;0.60;;
40995;SDS011;26723;57.478;12.066;2022-10-26T07:24:49;0.97;;;0.63;;
40995;SDS011;26723;57.478;12.066;2022-10-26T07:27:59;2.47;;;0.70;;
40995;SDS011;26723;57.478;12.066;2022-10-26T07:31:08;1.83;;;0.50;;
40995;SDS011;26723;57.478;12.066;2022-10-26T07:34:16;0.47;;;0.47;;
40995;SDS011;26723;57.478;12.066;2022-10-26T07:37:26;0.73;;;0.63;;
40995;SDS011;26723;57.478;12.066;2022-10-26T07:40:35;2.47;;;0.70;;
40995;SDS011;26723;57.478;12.066;2022-10-26T07:43:43;1.97;;;0.70;;
40995;SDS011;26723;57.478;12.066;2022-10-26T07:46:53;0.70;;;0.70;;
40995;SDS011;26723;57.478;12.066;2022-10-26T07:50:01;0.80;;;0.80;;
40995;SDS011;26723;57.478;12.066;2022-10-26T07:53:12;1.40;;;0.77;;
40995;SDS011;26723;57.478;12.066;2022-10-26T07:56:21;1.40;;;0.60;;
40995;SDS011;26723;57.478;12.066;2022-10-26T07:59:29;0.97;;;0.67;;
40995;SDS011;26723;57.478;12.066;2022-10-26T08:02:37;0.90;;;0.43;;
40995;SDS011;26723;57.478;12.066;2022-10-26T08:05:46;1.10;;;0.53;;
40995;SDS011;26723;57.478;12.066;2022-10-26T08:08:58;1.63;;;0.53;;
40995;SDS011;26723;57.478;12.066;2022-10-26T08:12:06;0.83;;;0.50;;
40995;SDS011;26723;57.478;12.066;2022-10-26T08:15:14;1.03;;;0.40;;
40995;SDS011;26723;57.478;12.066;2022-10-26T08:18:23;1.43;;;0.63;;
40995;SDS011;26723;57.478;12.066;2022-10-26T08:21:31;1.37;;;0.70;;
40995;SDS011;26723;57.478;12.066;2022-10-26T08:24:48;1.60;;;0.60;;
40995;SDS011;26723;57.478;12.066;2022-10-26T08:27:59;3.00;;;0.73;;
40995;SDS011;26723;57.478;12.066;2022-10-26T08:31:08;1.10;;;0.73;;
40995;SDS011;26723;57.478;12.066;2022-10-26T08:34:17;1.33;;;0.63;;
40995;SDS011;26723;57.478;12.066;2022-10-26T08:37:25;0.50;;;0.50;;
40995;SDS011;26723;57.478;12.066;2022-10-26T08:40:37;1.67;;;0.80;;
40995;SDS011;26723;57.478;12.066;2022-10-26T08:43:47;0.70;;;0.70;;
40995;SDS011;26723;57.478;12.066;2022-10-26T08:47:03;0.87;;;0.43;;
40995;SDS011;26723;57.478;12.066;2022-10-26T08:50:16;1.87;;;0.50;;
40995;SDS011;26723;57.478;12.066;2022-10-26T08:53:32;1.93;;;0.60;;
40995;SDS011;26723;57.478;12.066;2022-10-26T08:56:46;0.50;;;0.50;;
40995;SDS011;26723;57.478;12.066;2022-10-26T08:59:58;1.77;;;0.90;;
40995;SDS011;26723;57.478;12.066;2022-10-26T09:03:11;1.47;;;0.40;;
40995;SDS011;26723;57.478;12.066;2022-10-26T09:06:24;1.33;;;0.70;;
40995;SDS011;26723;57.478;12.066;2022-10-26T09:09:38;1.83;;;0.80;;
40995;SDS011;26723;57.478;12.066;2022-10-26T09:12:54;1.57;;;0.80;;
40995;SDS011;26723;57.478;12.066;2022-10-26T09:16:11;1.47;;;0.77;;
40995;SDS011;26723;57.478;12.066;2022-10-26T09:19:45;0.63;;;0.40;;
40995;SDS011;26723;57.478;12.066;2022-10-26T09:23:13;1.07;;;0.60;;
40995;SDS011;26723;57.478;12.066;2022-10-26T09:26:32;0.80;;;0.70;;
40995;SDS011;26723;57.478;12.066;2022-10-26T09:29:47;1.20;;;0.40;;
40995;SDS011;26723;57.478;12.066;2022-10-26T09:32:56;1.10;;;0.50;;
40995;SDS011;26723;57.478;12.066;2022-10-26T09:36:07;1.00;;;0.50;;
40995;SDS011;26723;57.478;12.066;2022-10-26T09:39:24;1.53;;;0.70;;
40995;SDS011;26723;57.478;12.066;2022-10-26T09:42:38;0.80;;;0.60;;
40995;SDS011;26723;57.478;12.066;2022-10-26T09:45:51;2.50;;;0.80;;
40995;SDS011;26723;57.478;12.066;2022-10-26T09:49:00;1.10;;;0.63;;
40995;SDS011;26723;57.478;12.066;2022-10-26T09:52:13;1.90;;;0.60;;
40995;SDS011;26723;57.478;12.066;2022-10-26T09:55:21;0.70;;;0.60;;
40995;SDS011;26723;57.478;12.066;2022-10-26T09:58:30;1.57;;;0.60;;
40995;SDS011;26723;57.478;12.066;2022-10-26T10:01:44;1.80;;;0.67;;
40995;SDS011;26723;57.478;12.066;2022-10-26T10:04:52;1.23;;;0.40;;
40995;SDS011;26723;57.478;12.066;2022-10-26T10:08:12;0.63;;;0.40;;
40995;SDS011;26723;57.478;12.066;2022-10-26T10:11:23;0.50;;;0.50;;
40995;SDS011;26723;57.478;12.066;2022-10-26T10:14:53;0.50;;;0.50;;
40995;SDS011;26723;57.478;12.066;2022-10-26T10:18:05;1.30;;;0.50;;
40995;SDS011;26723;57.478;12.066;2022-10-26T10:21:32;2.07;;;0.73;;
40995;SDS011;26723;57.478;12.066;2022-10-26T10:24:42;1.80;;;0.40;;
40995;SDS011;26723;57.478;12.066;2022-10-26T10:28:00;0.80;;;0.37;;
40995;SDS011;26723;57.478;12.066;2022-10-26T10:31:19;0.90;;;0.67;;
40995;SDS011;26723;57.478;12.066;2022-10-26T10:34:30;0.30;;;0.30;;
40995;SDS011;26723;57.478;12.066;2022-10-26T10:37:41;0.17;;;0.17;;
40995;SDS011;26723;57.478;12.066;2022-10-26T10:40:52;0.90;;;0.60;;
40995;SDS011;26723;57.478;12.066;2022-10-26T10:44:04;0.30;;;0.30;;
40995;SDS011;26723;57.478;12.066;2022-10-26T10:47:17;2.13;;;0.70;;
40995;SDS011;26723;57.478;12.066;2022-10-26T10:50:31;0.97;;;0.43;;
40995;SDS011;26723;57.478;12.066;2022-10-26T10:53:43;0.40;;;0.40;;
40995;SDS011;26723;57.478;12.066;2022-10-26T10:56:55;0.50;;;0.50;;
40995;SDS011;26723;57.478;12.066;2022-10-26T11:00:11;0.53;;;0.53;;
40995;SDS011;26723;57.478;12.066;2022-10-26T11:06:54;2.10;;;0.63;;
40995;SDS011;26723;57.478;12.066;2022-10-26T11:10:07;3.17;;;0.67;;
40995;SDS011;26723;57.478;12.066;2022-10-26T11:13:20;2.40;;;1.10;;
40995;SDS011;26723;57.478;12.066;2022-10-26T11:16:35;1.00;;;0.90;;
40995;SDS011;26723;57.478;12.066;2022-10-26T11:19:47;1.90;;;0.77;;
40995;SDS011;26723;57.478;12.066;2022-10-26T11:23:01;1.40;;;0.80;;
40995;SDS011;26723;57.478;12.066;2022-10-26T11:26:16;1.33;;;0.87;;
40995;SDS011;26723;57.478;12.066;2022-10-26T11:29:32;2.33;;;0.83;;
40995;SDS011;26723;57.478;12.066;2022-10-26T11:32:49;1.10;;;1.00;;
40995;SDS011;26723;57.478;12.066;2022-10-26T11:36:00;3.60;;;1.07;;
40995;SDS011;26723;57.478;12.066;2022-10-26T11:39:15;1.53;;;0.37;;
40995;SDS011;26723;57.478;12.066;2022-10-26T11:42:29;0.70;;;0.70;;
40995;SDS011;26723;57.478;12.066;2022-10-26T11:45:43;1.33;;;0.63;;
40995;SDS011;26723;57.478;12.066;2022-10-26T11:48:53;1.20;;;0.80;;
40995;SDS011;26723;57.478;12.066;2022-10-26T11:52:07;0.50;;;0.50;;
40995;SDS011;26723;57.478;12.066;2022-10-26T11:55:24;2.10;;;0.47;;
40995;SDS011;26723;57.478;12.066;2022-10-26T11:58:32;0.90;;;0.57;;
40995;SDS011;26723;57.478;12.066;2022-10-26T12:01:41;1.37;;;0.60;;
40995;SDS011;26723;57.478;12.066;2022-10-26T12:04:51;1.80;;;0.50;;
40995;SDS011;26723;57.478;12.066;2022-10-26T12:08:04;1.40;;;0.90;;
40995;SDS011;26723;57.478;12.066;2022-10-26T12:11:21;0.83;;;0.83;;
40995;SDS011;26723;57.478;12.066;2022-10-26T12:14:40;0.93;;;0.70;;
40995;SDS011;26723;57.478;12.066;2022-10-26T12:17:55;0.73;;;0.60;;
40995;SDS011;26723;57.478;12.066;2022-10-26T12:21:12;1.50;;;0.80;;
40995;SDS011;26723;57.478;12.066;2022-10-26T12:24:25;0.87;;;0.73;;
40995;SDS011;26723;57.478;12.066;2022-10-26T12:27:49;1.23;;;0.90;;
40995;SDS011;26723;57.478;12.066;2022-10-26T12:34:58;1.30;;;1.20;;
40995;SDS011;26723;57.478;12.066;2022-10-26T12:41:54;1.10;;;1.00;;
40995;SDS011;26723;57.478;12.066;2022-10-26T12:45:18;2.77;;;1.00;;
40995;SDS011;26723;57.478;12.066;2022-10-26T12:48:37;1.23;;;1.10;;
40995;SDS011;26723;57.478;12.066;2022-10-26T12:51:47;0.97;;;0.97;;
40995;SDS011;26723;57.478;12.066;2022-10-26T13:09:29;0.87;;;0.87;;
40995;SDS011;26723;57.478;12.066;2022-10-26T13:12:44;3.57;;;1.10;;
40995;SDS011;26723;57.478;12.066;2022-10-26T13:15:57;1.20;;;1.10;;
40995;SDS011;26723;57.478;12.066;2022-10-26T13:19:20;0.80;;;0.80;;
40995;SDS011;26723;57.478;12.066;2022-10-26T13:22:30;1.47;;;0.90;;
40995;SDS011;26723;57.478;12.066;2022-10-26T13:25:39;1.57;;;0.93;;
40995;SDS011;26723;57.478;12.066;2022-10-26T13:28:48;1.33;;;0.87;;
40995;SDS011;26723;57.478;12.066;2022-10-26T13:31:58;1.20;;;1.10;;
40995;SDS011;26723;57.478;12.066;2022-10-26T13:35:10;1.10;;;1.10;;
40995;SDS011;26723;57.478;12.066;2022-10-26T13:38:21;1.33;;;1.07;;
40995;SDS011;26723;57.478;12.066;2022-10-26T13:41:34;1.43;;;1.13;;
40995;SDS011;26723;57.478;12.066;2022-10-26T13:44:46;1.73;;;1.00;;
40995;SDS011;26723;57.478;12.066;2022-10-26T13:48:00;1.87;;;1.20;;
40995;SDS011;26723;57.478;12.066;2022-10-26T13:51:15;1.70;;;1.60;;
40995;SDS011;26723;57.478;12.066;2022-10-26T13:54:28;2.43;;;1.40;;
40995;SDS011;26723;57.478;12.066;2022-10-26T13:57:43;1.87;;;1.20;;
40995;SDS011;26723;57.478;12.066;2022-10-26T14:01:00;2.03;;;1.23;;
40995;SDS011;26723;57.478;12.066;2022-10-26T14:04:13;1.43;;;0.93;;
40995;SDS011;26723;57.478;12.066;2022-10-26T14:07:25;3.33;;;1.40;;
40995;SDS011;26723;57.478;12.066;2022-10-26T14:10:41;2.43;;;1.23;;
40995;SDS011;26723;57.478;12.066;2022-10-26T14:13:53;1.07;;;0.93;;
40995;SDS011;26723;57.478;12.066;2022-10-26T14:17:02;1.30;;;0.90;;
40995;SDS011;26723;57.478;12.066;2022-10-26T14:20:13;1.27;;;1.17;;
40995;SDS011;26723;57.478;12.066;2022-10-26T14:23:31;1.07;;;1.00;;
40995;SDS011;26723;57.478;12.066;2022-10-26T14:26:40;1.30;;;1.20;;
40995;SDS011;26723;57.478;12.066;2022-10-26T14:29:49;2.70;;;1.00;;
40995;SDS011;26723;57.478;12.066;2022-10-26T14:33:22;3.77;;;1.20;;
40995;SDS011;26723;57.478;12.066;2022-10-26T14:36:35;1.27;;;1.13;;
40995;SDS011;26723;57.478;12.066;2022-10-26T14:39:48;2.00;;;1.37;;
40995;SDS011;26723;57.478;12.066;2022-10-26T14:42:57;3.63;;;1.17;;
40995;SDS011;26723;57.478;12.066;2022-10-26T14:46:10;1.10;;;1.10;;
40995;SDS011;26723;57.478;12.066;2022-10-26T14:49:22;3.37;;;1.70;;
40995;SDS011;26723;57.478;12.066;2022-10-26T14:52:33;1.63;;;1.53;;
40995;SDS011;26723;57.478;12.066;2022-10-26T14:55:46;2.43;;;1.50;;
40995;SDS011;26723;57.478;12.066;2022-10-26T14:58:56;1.50;;;1.40;;
40995;SDS011;26723;57.478;12.066;2022-10-26T15:02:10;2.60;;;1.67;;
40995;SDS011;26723;57.478;12.066;2022-10-26T15:05:25;1.70;;;1.60;;
40995;SDS011;26723;57.478;12.066;2022-10-26T15:08:41;1.70;;;1.60;;
40995;SDS011;26723;57.478;12.066;2022-10-26T15:12:03;1.50;;;1.37;;
40995;SDS011;26723;57.478;12.066;2022-10-26T15:15:17;2.50;;;1.40;;
40995;SDS011;26723;57.478;12.066;2022-10-26T15:18:33;1.87;;;1.40;;
40995;SDS011;26723;57.478;12.066;2022-10-26T15:21:44;1.20;;;1.10;;
40995;SDS011;26723;57.478;12.066;2022-10-26T15:24:55;1.57;;;1.20;;
40995;SDS011;26723;57.478;12.066;2022-10-26T15:28:09;2.10;;;1.60;;
40995;SDS011;26723;57.478;12.066;2022-10-26T15:31:25;1.50;;;1.40;;
40995;SDS011;26723;57.478;12.066;2022-10-26T15:34:36;3.73;;;1.40;;
40995;SDS011;26723;57.478;12.066;2022-10-26T15:37:44;2.30;;;1.77;;
40995;SDS011;26723;57.478;12.066;2022-10-26T15:40:53;3.10;;;1.30;;
40995;SDS011;26723;57.478;12.066;2022-10-26T15:44:03;2.93;;;1.40;;
40995;SDS011;26723;57.478;12.066;2022-10-26T15:47:19;1.30;;;1.20;;
40995;SDS011;26723;57.478;12.066;2022-10-26T15:50:33;3.00;;;1.30;;
40995;SDS011;26723;57.478;12.066;2022-10-26T15:53:45;3.13;;;1.20;;
40995;SDS011;26723;57.478;12.066;2022-10-26T15:56:54;1.03;;;0.80;;
40995;SDS011;26723;57.478;12.066;2022-10-26T16:00:04;2.30;;;1.00;;
40995;SDS011;26723;57.478;12.066;2022-10-26T16:03:15;2.47;;;1.00;;
40995;SDS011;26723;57.478;12.066;2022-10-26T16:06:27;1.77;;;1.30;;
40995;SDS011;26723;57.478;12.066;2022-10-26T16:09:37;1.33;;;1.20;;
40995;SDS011;26723;57.478;12.066;2022-10-26T16:12:46;1.27;;;1.17;;
40995;SDS011;26723;57.478;12.066;2022-10-26T16:15:57;1.00;;;0.90;;
40995;SDS011;26723;57.478;12.066;2022-10-26T16:19:07;1.80;;;1.03;;
40995;SDS011;26723;57.478;12.066;2022-10-26T16:22:36;1.10;;;1.00;;
40995;SDS011;26723;57.478;12.066;2022-10-26T16:25:46;2.53;;;0.97;;
40995;SDS011;26723;57.478;12.066;2022-10-26T16:28:54;3.50;;;1.40;;
40995;SDS011;26723;57.478;12.066;2022-10-26T16:32:04;1.23;;;1.13;;
40995;SDS011;26723;57.478;12.066;2022-10-26T16:35:12;2.20;;;1.20;;
40995;SDS011;26723;57.478;12.066;2022-10-26T16:38:21;1.70;;;1.40;;
40995;SDS011;26723;57.478;12.066;2022-10-26T16:41:30;1.43;;;1.30;;
40995;SDS011;26723;57.478;12.066;2022-10-26T16:44:41;3.40;;;1.27;;
40995;SDS011;26723;57.478;12.066;2022-10-26T16:47:50;2.70;;;1.10;;
40995;SDS011;26723;57.478;12.066;2022-10-26T16:51:03;3.90;;;1.50;;
40995;SDS011;26723;57.478;12.066;2022-10-26T16:54:12;2.57;;;1.20;;
40995;SDS011;26723;57.478;12.066;2022-10-26T16:57:20;1.67;;;1.40;;
40995;SDS011;26723;57.478;12.066;2022-10-26T17:00:29;2.60;;;1.30;;
40995;SDS011;26723;57.478;12.066;2022-10-26T17:03:39;2.83;;;1.30;;
40995;SDS011;26723;57.478;12.066;2022-10-26T17:06:47;1.40;;;1.30;;
40995;SDS011;26723;57.478;12.066;2022-10-26T17:09:55;1.87;;;1.13;;
40995;SDS011;26723;57.478;12.066;2022-10-26T17:13:04;2.90;;;1.27;;
40995;SDS011;26723;57.478;12.066;2022-10-26T17:16:13;1.30;;;1.20;;
40995;SDS011;26723;57.478;12.066;2022-10-26T17:19:25;1.83;;;1.50;;
40995;SDS011;26723;57.478;12.066;2022-10-26T17:22:33;5.43;;;1.80;;
40995;SDS011;26723;57.478;12.066;2022-10-26T17:25:43;1.83;;;1.50;;
40995;SDS011;26723;57.478;12.066;2022-10-26T17:29:10;1.93;;;1.70;;
40995;SDS011;26723;57.478;12.066;2022-10-26T17:32:19;2.60;;;1.30;;
40995;SDS011;26723;57.478;12.066;2022-10-26T17:35:29;1.50;;;1.40;;
40995;SDS011;26723;57.478;12.066;2022-10-26T17:38:40;1.77;;;1.27;;
40995;SDS011;26723;57.478;12.066;2022-10-26T17:41:49;2.93;;;1.77;;
40995;SDS011;26723;57.478;12.066;2022-10-26T17:44:57;1.90;;;1.70;;
40995;SDS011;26723;57.478;12.066;2022-10-26T17:48:06;2.30;;;2.07;;
40995;SDS011;26723;57.478;12.066;2022-10-26T17:51:16;2.23;;;2.00;;
40995;SDS011;26723;57.478;12.066;2022-10-26T17:54:25;3.77;;;2.80;;
40995;SDS011;26723;57.478;12.066;2022-10-26T17:57:34;3.40;;;2.17;;
40995;SDS011;26723;57.478;12.066;2022-10-26T18:00:42;3.87;;;2.60;;
40995;SDS011;26723;57.478;12.066;2022-10-26T18:03:55;4.27;;;2.60;;
40995;SDS011;26723;57.478;12.066;2022-10-26T18:07:05;3.63;;;2.50;;
40995;SDS011;26723;57.478;12.066;2022-10-26T18:10:14;3.67;;;2.50;;
40995;SDS011;26723;57.478;12.066;2022-10-26T18:13:42;3.43;;;2.47;;
40995;SDS011;26723;57.478;12.066;2022-10-26T18:16:51;2.83;;;2.50;;
40995;SDS011;26723;57.478;12.066;2022-10-26T18:20:00;3.77;;;2.80;;
40995;SDS011;26723;57.478;12.066;2022-10-26T18:23:10;3.20;;;2.90;;
40995;SDS011;26723;57.478;12.066;2022-10-26T18:26:19;4.87;;;2.80;;
40995;SDS011;26723;57.478;12.066;2022-10-26T18:29:28;3.83;;;2.80;;
40995;SDS011;26723;57.478;12.066;2022-10-26T18:32:40;5.57;;;2.90;;
40995;SDS011;26723;57.478;12.066;2022-10-26T18:35:48;7.27;;;3.10;;
40995;SDS011;26723;57.478;12.066;2022-10-26T18:38:58;5.37;;;3.80;;
40995;SDS011;26723;57.478;12.066;2022-10-26T18:42:07;3.37;;;2.93;;
40995;SDS011;26723;57.478;12.066;2022-10-26T18:45:15;5.63;;;3.13;;
40995;SDS011;26723;57.478;12.066;2022-10-26T18:48:23;4.43;;;3.73;;
40995;SDS011;26723;57.478;12.066;2022-10-26T18:51:32;5.00;;;3.47;;
40995;SDS011;26723;57.478;12.066;2022-10-26T18:54:42;5.83;;;3.10;;
40995;SDS011;26723;57.478;12.066;2022-10-26T18:57:51;4.10;;;3.43;;
40995;SDS011;26723;57.478;12.066;2022-10-26T19:01:03;4.17;;;3.37;;
40995;SDS011;26723;57.478;12.066;2022-10-26T19:04:13;4.00;;;3.17;;
40995;SDS011;26723;57.478;12.066;2022-10-26T19:07:22;4.50;;;3.57;;
40995;SDS011;26723;57.478;12.066;2022-10-26T19:10:32;4.73;;;3.17;;
40995;SDS011;26723;57.478;12.066;2022-10-26T19:13:41;4.57;;;3.50;;
40995;SDS011;26723;57.478;12.066;2022-10-26T19:16:50;3.90;;;3.60;;
40995;SDS011;26723;57.478;12.066;2022-10-26T19:19:58;5.40;;;3.60;;
40995;SDS011;26723;57.478;12.066;2022-10-26T19:23:06;3.83;;;3.43;;